Charles Town, WV (25414)

12:58 AM EDT on April 28, 2015 (GMT -0400)
Tuscawilla Hills | | Change Station
CLOSE
Current Station
Personal Weather Station
Location: Charles Town, WV
Elevation: 572 ft
Nearby Weather Stations

Elev 572 ft 39.29 °N, 77.90 °W | Updated 3 seconds ago

Clear
Clear
43.3 °F
Feels Like 43 °F
N
0.0
Wind Variable Wind from WSW
Gusts 1.0 mph

Today
High -- | Low -- °F
--% Chance of Precip.
Yesterday
High -- | Low -- °F
Precip. -- in
6:16 AM 8:01 PM
Waxing Gibbous, 70% visible
Pressure 29.96 in
Visibility 10.0 miles
Clouds Clear
Windchill 43 °F
Dew Point 34 °F
Humidity 71%
Rainfall 0.00 in
Snow Depth Not available.
UV 0 out of 12
Pollen 10.60 out of 12
Air Quality Not available.
Flu Activity Sporadic
METAR KMRB 280453Z AUTO 28006KT 10SM CLR 07/00 A2995 RMK AO2 SLP143 T00720000 401440050 TSNO

More Conditions Fewer Conditions

Pressure 29.96 in
Visibility 10.0 miles
Clouds Clear
Windchill 43 °F
Dew Point 34 °F
Humidity 71%
Rainfall 0.00 in
Snow Depth Not available.
UV 0 out of 12
Pollen 10.60 out of 12
Air Quality Not available.
Flu Activity Sporadic
METAR KMRB 280453Z AUTO 28006KT 10SM CLR 07/00 A2995 RMK AO2 SLP143 T00720000 401440050 TSNO

More Conditions Fewer Conditions

10-Day Weather Forecast

Almanac

Astronomy

Apr. 28, 2015 Rise Set
Actual Time
Civil Twilight
Nautical Twilight
Astronomical Twilight
Moon
Length of Visible Light
Length of Day
Tomorrow will be .
, % of the Moon is Illuminated

Today's Extremes

State Highs State Lows

Community

WunderPhotos

Upload Photos

1,817,582 photos uploaded!

WunderBlogs® & News

Nearby

Air Quality

  Air Quality AQ Index Pollutant
Not available.

Snow Depth

Station Depth Elevation

Earthquake Activity

City Distance Mag. Time & Date
Minimum magnitude displayed is 2.5.

Coastal Water Temperatures

Place Temperature

Stations

Nearby Weather Stations

Station Location Temp. Windchill Dew Point Humidity Wind Precip. Elev Updated Type